Time;durP1;ratioP1;P1;durP2;ratioP2;P2;SDS_P1;SDS_P2;PMS_P1;PMS_P2;Temp;Humidity;BMP_temperature;BMP_pressure;BME280_temperature;BME280_humidity;BME280_pressure;Samples;Min_cycle;Max_cycle;Signal;HPM_P1;HPM_P2
2024/01/24 00:01:31;;;;;;;0.20;0.00;;;;;;;;;;5003595;28;20050;-85
2024/01/24 00:04:00;;;;;;;0.20;0.03;;;;;;;;;;5001246;28;20045;-86
2024/01/24 00:06:29;;;;;;;0.22;0.10;;;;;;;;;;5004214;28;20038;-86
2024/01/24 00:08:55;;;;;;;0.68;0.45;;;;;;;;;;4989118;28;20601;-85
2024/01/24 00:11:24;;;;;;;0.20;0.00;;;;;;;;;;4989343;28;20045;-84
2024/01/24 00:13:52;;;;;;;0.20;0.10;;;;;;;;;;5004068;28;20092;-83
2024/01/24 00:16:24;;;;;;;0.20;0.10;;;;;;;;;;4990985;28;20402;-89
2024/01/24 00:18:53;;;;;;;0.20;0.10;;;;;;;;;;4983532;28;20529;-84
2024/01/24 00:21:33;;;;;;;0.20;0.10;;;;;;;;;;4990689;28;20049;-86
2024/01/24 00:24:05;;;;;;;0.20;0.05;;;;;;;;;;5019266;28;20150;-84
2024/01/24 00:26:33;;;;;;;0.20;0.00;;;;;;;;;;5004929;28;20045;-87
2024/01/24 00:29:04;;;;;;;0.20;0.10;;;;;;;;;;5002748;28;20583;-88
2024/01/24 00:31:51;;;;;;;0.20;0.00;;;;;;;;;;4988117;28;20513;-86
2024/01/24 00:34:23;;;;;;;0.20;0.00;;;;;;;;;;5002813;28;20049;-84
2024/01/24 00:36:52;;;;;;;0.20;0.10;;;;;;;;;;5005565;28;20448;-87
2024/01/24 00:39:28;;;;;;;0.28;0.08;;;;;;;;;;4989190;28;20040;-86
2024/01/24 00:42:05;;;;;;;0.20;0.10;;;;;;;;;;5021656;28;20050;-85
2024/01/24 00:44:34;;;;;;;0.20;0.00;;;;;;;;;;5001457;28;20049;-85
2024/01/24 00:47:11;;;;;;;0.20;0.10;;;;;;;;;;4999850;28;20617;-89
2024/01/24 00:49:42;;;;;;;0.20;0.00;;;;;;;;;;5005419;28;20112;-84
2024/01/24 00:52:14;;;;;;;0.20;0.00;;;;;;;;;;5006822;28;20116;-86
2024/01/24 00:54:42;;;;;;;0.20;0.10;;;;;;;;;;4987799;28;20111;-86
2024/01/24 00:57:11;;;;;;;0.20;0.10;;;;;;;;;;5003532;28;20096;-88
2024/01/24 00:59:44;;;;;;;0.30;0.15;;;;;;;;;;4986624;28;20053;-88
2024/01/24 01:02:10;;;;;;;0.20;0.00;;;;;;;;;;5016384;28;20041;-84
2024/01/24 01:04:39;;;;;;;0.20;0.00;;;;;;;;;;5000608;28;20053;-85
2024/01/24 01:07:12;;;;;;;0.20;0.10;;;;;;;;;;5007483;28;20045;-84
2024/01/24 01:09:45;;;;;;;0.20;0.00;;;;;;;;;;4990213;28;22690;-84
2024/01/24 01:12:13;;;;;;;0.20;0.00;;;;;;;;;;5000291;28;20077;-85
2024/01/24 01:14:39;;;;;;;0.30;0.30;;;;;;;;;;5019671;28;20056;-84
2024/01/24 01:17:05;;;;;;;0.20;0.00;;;;;;;;;;4987871;28;20046;-84
2024/01/24 01:19:31;;;;;;;0.20;0.05;;;;;;;;;;5004653;28;20088;-84
2024/01/24 01:21:58;;;;;;;0.20;0.00;;;;;;;;;;5000887;28;20044;-85
2024/01/24 01:24:24;;;;;;;0.20;0.10;;;;;;;;;;5004936;28;20072;-87
2024/01/24 01:26:50;;;;;;;0.20;0.10;;;;;;;;;;5005723;28;20044;-86
2024/01/24 01:29:16;;;;;;;0.20;0.00;;;;;;;;;;5001057;28;20033;-85
2024/01/24 01:31:42;;;;;;;4.57;0.20;;;;;;;;;;4998641;28;20174;-83
2024/01/24 01:34:08;;;;;;;0.20;0.10;;;;;;;;;;4990648;28;20430;-84
2024/01/24 01:36:34;;;;;;;0.20;0.08;;;;;;;;;;4991102;28;20038;-83
2024/01/24 01:39:00;;;;;;;0.20;0.10;;;;;;;;;;5004671;28;20383;-84
2024/01/24 01:41:36;;;;;;;0.20;0.10;;;;;;;;;;4999482;28;20034;-86
2024/01/24 01:44:02;;;;;;;0.20;0.00;;;;;;;;;;5011681;28;20426;-86
2024/01/24 01:46:29;;;;;;;0.20;0.00;;;;;;;;;;5005694;28;20045;-86
2024/01/24 01:48:56;;;;;;;0.20;0.10;;;;;;;;;;4988970;28;20100;-88
2024/01/24 01:51:26;;;;;;;0.20;0.00;;;;;;;;;;4988656;28;20061;-85
2024/01/24 01:53:59;;;;;;;0.20;0.00;;;;;;;;;;4989036;28;20044;-85
2024/01/24 01:56:28;;;;;;;0.20;0.10;;;;;;;;;;4990800;28;20068;-83
2024/01/24 01:59:06;;;;;;;0.20;0.00;;;;;;;;;;4990028;28;20049;-85
2024/01/24 02:01:33;;;;;;;0.20;0.00;;;;;;;;;;4983335;28;20110;-81
2024/01/24 02:04:08;;;;;;;0.20;0.10;;;;;;;;;;5011420;28;20049;-84
2024/01/24 02:06:36;;;;;;;0.20;0.00;;;;;;;;;;5028656;28;20099;-86
2024/01/24 02:09:09;;;;;;;0.20;0.00;;;;;;;;;;4990175;28;20076;-85
2024/01/24 02:11:38;;;;;;;0.20;0.10;;;;;;;;;;4992383;28;20041;-86
2024/01/24 02:14:07;;;;;;;0.20;0.10;;;;;;;;;;4991378;28;20499;-84
2024/01/24 02:16:45;;;;;;;0.20;0.10;;;;;;;;;;5007228;28;20052;-87
2024/01/24 02:19:14;;;;;;;0.20;0.00;;;;;;;;;;5008689;28;20124;-85
2024/01/24 02:21:43;;;;;;;0.20;0.10;;;;;;;;;;4990399;28;20076;-85
2024/01/24 02:24:12;;;;;;;0.20;0.00;;;;;;;;;;4993268;28;20064;-85
2024/01/24 02:26:44;;;;;;;0.20;0.00;;;;;;;;;;4990344;28;20041;-83
2024/01/24 02:29:13;;;;;;;0.20;0.00;;;;;;;;;;5008911;28;20065;-84
2024/01/24 02:31:45;;;;;;;0.20;0.00;;;;;;;;;;4991401;28;20041;-85
2024/01/24 02:34:11;;;;;;;0.20;0.10;;;;;;;;;;5007405;28;20072;-85
2024/01/24 02:36:37;;;;;;;0.20;0.00;;;;;;;;;;5004780;28;20041;-85
2024/01/24 02:39:03;;;;;;;0.20;0.00;;;;;;;;;;4993933;28;20065;-85
2024/01/24 02:41:32;;;;;;;0.20;0.00;;;;;;;;;;4988250;28;20555;-87
2024/01/24 02:43:58;;;;;;;0.20;0.10;;;;;;;;;;5002991;28;20046;-85
2024/01/24 02:46:27;;;;;;;0.20;0.10;;;;;;;;;;4991559;28;20034;-85
2024/01/24 02:48:56;;;;;;;0.20;0.00;;;;;;;;;;4994869;28;20100;-83
2024/01/24 02:51:25;;;;;;;0.20;0.10;;;;;;;;;;4987798;28;20463;-85
2024/01/24 02:53:52;;;;;;;0.20;0.00;;;;;;;;;;5008066;28;20084;-85
2024/01/24 02:56:18;;;;;;;0.20;0.00;;;;;;;;;;5007264;28;20033;-85
2024/01/24 02:58:47;;;;;;;0.30;0.20;;;;;;;;;;4993087;28;20120;-87
2024/01/24 03:01:15;;;;;;;0.20;0.10;;;;;;;;;;5003247;28;20044;-84
2024/01/24 03:03:46;;;;;;;0.20;0.10;;;;;;;;;;4989547;28;20469;-86
2024/01/24 03:06:18;;;;;;;0.20;0.10;;;;;;;;;;5004912;28;20045;-83
2024/01/24 03:08:49;;;;;;;0.20;0.10;;;;;;;;;;4995242;28;20175;-86
2024/01/24 03:11:22;;;;;;;0.20;0.00;;;;;;;;;;4994678;28;20069;-86
2024/01/24 03:13:50;;;;;;;0.20;0.00;;;;;;;;;;4991242;28;20049;-85
2024/01/24 03:16:20;;;;;;;0.20;0.10;;;;;;;;;;5002557;28;20106;-87
2024/01/24 03:18:47;;;;;;;3.03;0.55;;;;;;;;;;5025081;28;20110;-85
2024/01/24 03:21:17;;;;;;;0.43;0.40;;;;;;;;;;5005241;28;20038;-85
2024/01/24 03:23:43;;;;;;;0.20;0.10;;;;;;;;;;4991879;28;20065;-84
2024/01/24 03:26:13;;;;;;;1.88;0.30;;;;;;;;;;5008545;28;20045;-84
2024/01/24 03:28:39;;;;;;;0.28;0.28;;;;;;;;;;5001195;28;20053;-87
2024/01/24 03:31:05;;;;;;;0.20;0.10;;;;;;;;;;5005705;28;20056;-84
2024/01/24 03:33:31;;;;;;;0.20;0.10;;;;;;;;;;4988432;28;20046;-84
2024/01/24 03:36:00;;;;;;;0.20;0.00;;;;;;;;;;4993150;28;20040;-86
2024/01/24 03:38:29;;;;;;;0.20;0.10;;;;;;;;;;5039420;22;20124;-88
2024/01/24 03:40:55;;;;;;;0.20;0.10;;;;;;;;;;5024079;28;20110;-84
2024/01/24 03:43:21;;;;;;;0.20;0.00;;;;;;;;;;5040095;28;20083;-85
2024/01/24 03:45:47;;;;;;;0.20;0.10;;;;;;;;;;5024492;28;20033;-82
2024/01/24 03:48:13;;;;;;;0.20;0.10;;;;;;;;;;5028003;28;20029;-83
2024/01/24 03:50:45;;;;;;;0.60;0.60;;;;;;;;;;5042846;28;20047;-83
2024/01/24 03:53:11;;;;;;;0.20;0.10;;;;;;;;;;5025737;28;20037;-87
2024/01/24 03:55:40;;;;;;;0.20;0.08;;;;;;;;;;5025945;28;20072;-84
2024/01/24 03:58:06;;;;;;;0.20;0.00;;;;;;;;;;5045064;28;20056;-82
2024/01/24 04:00:33;;;;;;;0.20;0.00;;;;;;;;;;5024273;28;20399;-85
2024/01/24 04:02:59;;;;;;;4.18;1.20;;;;;;;;;;5026672;28;20127;-83
2024/01/24 04:05:31;;;;;;;0.20;0.10;;;;;;;;;;5028490;28;20037;-87
2024/01/24 04:07:57;;;;;;;0.20;0.00;;;;;;;;;;5023709;28;20072;-83
2024/01/24 04:10:23;;;;;;;0.20;0.10;;;;;;;;;;5023431;28;20099;-82
2024/01/24 04:12:49;;;;;;;0.20;0.10;;;;;;;;;;5024039;28;20107;-83
2024/01/24 04:15:18;;;;;;;0.20;0.10;;;;;;;;;;5023523;28;20061;-83
2024/01/24 04:17:44;;;;;;;0.20;0.10;;;;;;;;;;5040111;28;20040;-83
2024/01/24 04:20:10;;;;;;;0.20;0.10;;;;;;;;;;5042421;28;20079;-82
2024/01/24 04:22:37;;;;;;;0.20;0.00;;;;;;;;;;5022066;28;20036;-84
2024/01/24 04:25:03;;;;;;;0.20;0.08;;;;;;;;;;5022140;28;20281;-87
2024/01/24 04:27:29;;;;;;;0.20;0.10;;;;;;;;;;5039404;28;20128;-85
2024/01/24 04:29:55;;;;;;;0.32;0.32;;;;;;;;;;5020587;28;20481;-84
2024/01/24 04:32:21;;;;;;;0.85;0.22;;;;;;;;;;5023137;28;20123;-86
2024/01/24 04:34:47;;;;;;;0.32;0.32;;;;;;;;;;5023474;28;20383;-85
2024/01/24 04:37:13;;;;;;;0.47;0.43;;;;;;;;;;5039736;28;20589;-82
2024/01/24 04:39:39;;;;;;;0.20;0.00;;;;;;;;;;5043268;28;20147;-86
2024/01/24 04:42:08;;;;;;;0.20;0.00;;;;;;;;;;5037096;28;20040;-81
2024/01/24 04:44:34;;;;;;;0.20;0.10;;;;;;;;;;5027700;28;20102;-85
2024/01/24 04:47:01;;;;;;;0.20;0.10;;;;;;;;;;5018573;28;20088;-85
2024/01/24 04:49:27;;;;;;;0.20;0.10;;;;;;;;;;5026611;28;20041;-83
2024/01/24 04:51:53;;;;;;;0.20;0.10;;;;;;;;;;5038607;28;20041;-79
2024/01/24 04:54:19;;;;;;;0.20;0.10;;;;;;;;;;5024706;28;20041;-83
2024/01/24 04:56:45;;;;;;;0.32;0.32;;;;;;;;;;5023931;28;20048;-86
2024/01/24 04:59:17;;;;;;;0.20;0.20;;;;;;;;;;5025414;28;20050;-83
2024/01/24 05:01:44;;;;;;;0.38;0.38;;;;;;;;;;5022416;28;20072;-85
2024/01/24 05:04:10;;;;;;;1.08;0.63;;;;;;;;;;5012096;28;20049;-84
2024/01/24 05:06:36;;;;;;;0.20;0.00;;;;;;;;;;5019624;28;20044;-84
2024/01/24 05:09:02;;;;;;;0.20;0.00;;;;;;;;;;5023746;28;20044;-84
2024/01/24 05:11:28;;;;;;;0.20;0.05;;;;;;;;;;5036529;28;20618;-82
2024/01/24 05:13:55;;;;;;;0.20;0.10;;;;;;;;;;5038511;28;20565;-86
2024/01/24 05:16:21;;;;;;;0.20;0.10;;;;;;;;;;5034175;28;20049;-84
2024/01/24 05:18:47;;;;;;;3.95;0.52;;;;;;;;;;5034543;28;20479;-86
2024/01/24 05:21:13;;;;;;;0.55;0.55;;;;;;;;;;5021411;28;20090;-86
2024/01/24 05:23:42;;;;;;;0.20;0.10;;;;;;;;;;5020763;28;20033;-86
2024/01/24 05:26:15;;;;;;;0.20;0.10;;;;;;;;;;5021583;28;20421;-84
2024/01/24 05:28:57;;;;;;;0.20;0.00;;;;;;;;;;5020522;22;20064;-84
2024/01/24 05:31:28;;;;;;;0.20;0.10;;;;;;;;;;4991023;28;20045;-84
2024/01/24 05:34:08;;;;;;;0.20;0.05;;;;;;;;;;5004515;28;20037;-81
2024/01/24 05:36:40;;;;;;;0.20;0.05;;;;;;;;;;4991733;28;20052;-86
2024/01/24 05:39:06;;;;;;;2.92;1.98;;;;;;;;;;4986045;28;20038;-85
2024/01/24 05:41:36;;;;;;;0.20;0.00;;;;;;;;;;4997146;28;20044;-84
2024/01/24 05:44:04;;;;;;;0.20;0.00;;;;;;;;;;4981992;28;20049;-83
2024/01/24 05:46:33;;;;;;;0.20;0.00;;;;;;;;;;4984044;28;20129;-85
2024/01/24 05:49:02;;;;;;;0.20;0.10;;;;;;;;;;4984326;28;20038;-83
2024/01/24 05:51:34;;;;;;;0.20;0.10;;;;;;;;;;4997144;28;20176;-85
2024/01/24 05:54:04;;;;;;;0.20;0.00;;;;;;;;;;4983095;28;20034;-86
2024/01/24 05:56:38;;;;;;;0.20;0.10;;;;;;;;;;4984870;28;20616;-86
2024/01/24 05:59:04;;;;;;;2.17;1.98;;;;;;;;;;4994029;28;20045;-83
2024/01/24 06:01:30;;;;;;;0.55;0.55;;;;;;;;;;5003681;28;20200;-86
2024/01/24 06:03:59;;;;;;;0.20;0.00;;;;;;;;;;4986807;28;20041;-86
2024/01/24 06:09:20;;;;;;;0.33;0.33;;;;;;;;;;4999536;28;20050;-86
2024/01/24 06:11:52;;;;;;;0.38;0.38;;;;;;;;;;4981646;28;20045;-80
2024/01/24 06:14:18;;;;;;;0.57;0.57;;;;;;;;;;5000842;28;20050;-85
2024/01/24 06:16:47;;;;;;;0.38;0.38;;;;;;;;;;4999864;28;20041;-83
2024/01/24 06:19:13;;;;;;;0.20;0.10;;;;;;;;;;5003726;28;20045;-84
2024/01/24 06:21:39;;;;;;;0.20;0.00;;;;;;;;;;4983378;28;20060;-83
2024/01/24 06:24:08;;;;;;;0.20;0.20;;;;;;;;;;4984175;28;20068;-84
2024/01/24 06:26:41;;;;;;;0.20;0.00;;;;;;;;;;5003278;28;20386;-85
2024/01/24 06:29:08;;;;;;;0.20;0.00;;;;;;;;;;4986335;28;20466;-87
2024/01/24 06:31:34;;;;;;;0.20;0.10;;;;;;;;;;4984667;28;20073;-85
2024/01/24 06:34:00;;;;;;;0.93;0.63;;;;;;;;;;4983239;28;20245;-81
2024/01/24 06:36:28;;;;;;;0.57;0.57;;;;;;;;;;4982202;28;20042;-84
2024/01/24 06:38:54;;;;;;;0.20;0.10;;;;;;;;;;4982296;28;21711;-82
2024/01/24 06:41:20;;;;;;;0.60;0.52;;;;;;;;;;4999032;28;20068;-83
2024/01/24 06:43:46;;;;;;;0.85;0.85;;;;;;;;;;4983338;28;20033;-82
2024/01/24 06:46:15;;;;;;;0.43;0.30;;;;;;;;;;4983292;28;20042;-84
2024/01/24 06:48:41;;;;;;;0.20;0.00;;;;;;;;;;5002548;28;20057;-84
2024/01/24 06:51:12;;;;;;;0.20;0.13;;;;;;;;;;4988527;28;20132;-84
2024/01/24 06:53:38;;;;;;;0.32;0.20;;;;;;;;;;4988033;28;20499;-81
2024/01/24 06:56:04;;;;;;;0.75;0.75;;;;;;;;;;4989556;28;20085;-83
2024/01/24 06:58:30;;;;;;;0.20;0.10;;;;;;;;;;5002783;28;20046;-82
2024/01/24 07:00:59;;;;;;;0.20;0.10;;;;;;;;;;5000927;28;20498;-85
2024/01/24 07:03:28;;;;;;;0.20;0.10;;;;;;;;;;4990236;28;20053;-84
2024/01/24 07:05:59;;;;;;;0.60;0.55;;;;;;;;;;5006459;28;20046;-85
2024/01/24 07:08:26;;;;;;;0.20;0.10;;;;;;;;;;5002961;28;20396;-86
2024/01/24 07:10:52;;;;;;;1.50;0.73;;;;;;;;;;5006642;28;20538;-85
2024/01/24 07:13:19;;;;;;;0.20;0.00;;;;;;;;;;5002266;28;20065;-87
2024/01/24 07:15:45;;;;;;;0.30;0.30;;;;;;;;;;4989360;28;20038;-83
2024/01/24 07:18:11;;;;;;;3.33;0.20;;;;;;;;;;5001155;28;20054;-87
2024/01/24 07:20:40;;;;;;;0.20;0.10;;;;;;;;;;5001563;28;20098;-83
2024/01/24 07:23:07;;;;;;;0.20;0.10;;;;;;;;;;4991331;28;20369;-86
2024/01/24 07:25:33;;;;;;;0.20;0.20;;;;;;;;;;5003380;28;20042;-84
2024/01/24 07:27:59;;;;;;;0.55;0.55;;;;;;;;;;4986375;28;20068;-84
2024/01/24 07:30:25;;;;;;;0.63;0.52;;;;;;;;;;5005157;28;20035;-84
2024/01/24 07:32:51;;;;;;;0.20;0.00;;;;;;;;;;4991576;28;20050;-83
2024/01/24 07:35:26;;;;;;;0.20;0.10;;;;;;;;;;4997620;28;20048;-86
2024/01/24 07:37:52;;;;;;;0.20;0.10;;;;;;;;;;4999604;28;20423;-87
2024/01/24 07:40:18;;;;;;;0.20;0.00;;;;;;;;;;5002709;28;20076;-86
2024/01/24 07:42:44;;;;;;;0.20;0.10;;;;;;;;;;4985181;28;20038;-86
2024/01/24 07:45:13;;;;;;;0.30;0.17;;;;;;;;;;5001791;28;20049;-82
2024/01/24 07:47:39;;;;;;;0.55;0.55;;;;;;;;;;5000681;28;20046;-84
2024/01/24 07:50:05;;;;;;;2.72;2.50;;;;;;;;;;5003289;28;20102;-86
2024/01/24 07:52:31;;;;;;;0.20;0.10;;;;;;;;;;4989888;28;20391;-87
2024/01/24 07:54:57;;;;;;;0.20;0.10;;;;;;;;;;4987099;28;20045;-86
2024/01/24 07:57:23;;;;;;;0.40;0.38;;;;;;;;;;4997797;28;20073;-87
2024/01/24 07:59:49;;;;;;;0.20;0.00;;;;;;;;;;4999892;28;20041;-82
2024/01/24 08:02:16;;;;;;;0.20;0.03;;;;;;;;;;4998960;28;20038;-86
2024/01/24 08:04:42;;;;;;;0.20;0.00;;;;;;;;;;4999694;28;20080;-83
2024/01/24 08:07:08;;;;;;;0.40;0.40;;;;;;;;;;4994646;28;20338;-85
2024/01/24 08:09:37;;;;;;;0.20;0.00;;;;;;;;;;5002305;28;20042;-82
2024/01/24 08:12:03;;;;;;;0.20;0.10;;;;;;;;;;4986003;28;20050;-85
2024/01/24 08:14:29;;;;;;;0.20;0.00;;;;;;;;;;5002963;28;20052;-85
2024/01/24 08:17:00;;;;;;;2.70;0.75;;;;;;;;;;4997941;28;20046;-86
2024/01/24 08:19:26;;;;;;;0.20;0.13;;;;;;;;;;4987873;28;20038;-84
2024/01/24 08:21:52;;;;;;;0.20;0.10;;;;;;;;;;5000816;28;20046;-86
2024/01/24 08:24:21;;;;;;;0.25;0.20;;;;;;;;;;5000874;28;20066;-87
2024/01/24 08:26:47;;;;;;;0.20;0.10;;;;;;;;;;5000147;28;20080;-87
2024/01/24 08:29:17;;;;;;;0.20;0.15;;;;;;;;;;5002369;28;20056;-82
2024/01/24 08:31:43;;;;;;;0.55;0.55;;;;;;;;;;4998555;28;20038;-84
2024/01/24 08:34:09;;;;;;;0.20;0.00;;;;;;;;;;5002860;28;20125;-83
2024/01/24 08:36:36;;;;;;;0.30;0.22;;;;;;;;;;4997451;28;20124;-86
2024/01/24 08:39:03;;;;;;;0.20;0.10;;;;;;;;;;4986987;28;20128;-83
2024/01/24 08:41:29;;;;;;;0.20;0.10;;;;;;;;;;4985418;28;20033;-82
2024/01/24 08:43:57;;;;;;;0.20;0.10;;;;;;;;;;4981475;28;20070;-87
2024/01/24 08:46:23;;;;;;;1.95;1.70;;;;;;;;;;4998568;28;20049;-84
2024/01/24 08:48:50;;;;;;;0.20;0.10;;;;;;;;;;4998804;28;20069;-82
2024/01/24 08:51:16;;;;;;;0.20;0.10;;;;;;;;;;5000531;28;20503;-80
2024/01/24 08:53:43;;;;;;;0.45;0.45;;;;;;;;;;4999446;28;20169;-80
2024/01/24 08:56:10;;;;;;;0.20;0.00;;;;;;;;;;5005142;28;20072;-86
2024/01/24 08:58:37;;;;;;;0.22;0.15;;;;;;;;;;4987330;28;20042;-84
2024/01/24 09:01:03;;;;;;;0.20;0.10;;;;;;;;;;5000271;28;20380;-82
2024/01/24 09:03:29;;;;;;;0.20;0.20;;;;;;;;;;4999998;28;20037;-83
2024/01/24 09:05:55;;;;;;;0.20;0.10;;;;;;;;;;4982051;28;20046;-84
2024/01/24 09:08:21;;;;;;;0.20;0.10;;;;;;;;;;4995338;28;20181;-86
2024/01/24 09:10:48;;;;;;;0.20;0.20;;;;;;;;;;5002720;28;20043;-85
2024/01/24 09:13:19;;;;;;;0.20;0.00;;;;;;;;;;4996751;28;20125;-84
2024/01/24 09:15:45;;;;;;;1.20;0.40;;;;;;;;;;4999795;28;20488;-86
2024/01/24 09:18:11;;;;;;;0.20;0.10;;;;;;;;;;4998148;28;20077;-81
2024/01/24 09:20:37;;;;;;;0.20;0.05;;;;;;;;;;4983086;28;20044;-83
2024/01/24 09:23:03;;;;;;;0.20;0.10;;;;;;;;;;4989382;28;20128;-85
2024/01/24 09:25:32;;;;;;;0.95;0.43;;;;;;;;;;4997155;28;20122;-83
2024/01/24 09:28:00;;;;;;;0.20;0.10;;;;;;;;;;4988154;28;20533;-85
2024/01/24 09:30:26;;;;;;;0.55;0.55;;;;;;;;;;4997274;28;20098;-84
2024/01/24 09:32:52;;;;;;;5.15;0.43;;;;;;;;;;5004703;28;20034;-80
2024/01/24 09:35:18;;;;;;;0.20;0.10;;;;;;;;;;4989579;28;20042;-85
2024/01/24 09:37:48;;;;;;;0.70;0.70;;;;;;;;;;5034190;22;20074;-84
2024/01/24 09:40:15;;;;;;;0.20;0.00;;;;;;;;;;4989413;28;20050;-84
2024/01/24 09:42:45;;;;;;;0.20;0.13;;;;;;;;;;4990637;28;20049;-85
2024/01/24 09:45:11;;;;;;;0.20;0.10;;;;;;;;;;4984222;28;20124;-84
2024/01/24 09:47:47;;;;;;;1.15;1.05;;;;;;;;;;5011121;28;20397;-86
2024/01/24 09:50:16;;;;;;;1.15;0.70;;;;;;;;;;5018351;28;20437;-86
2024/01/24 09:52:43;;;;;;;0.30;0.30;;;;;;;;;;5038197;28;20044;-84
2024/01/24 09:55:16;;;;;;;0.20;0.10;;;;;;;;;;5011663;28;20041;-85
2024/01/24 09:57:48;;;;;;;0.20;0.10;;;;;;;;;;5023538;28;20037;-85
2024/01/24 10:00:17;;;;;;;0.20;0.00;;;;;;;;;;5024847;28;20124;-85
2024/01/24 10:02:47;;;;;;;0.20;0.10;;;;;;;;;;5025574;28;20052;-83
2024/01/24 10:05:24;;;;;;;0.30;0.30;;;;;;;;;;5010456;28;20512;-83
2024/01/24 10:07:50;;;;;;;2.92;0.35;;;;;;;;;;5027347;28;20082;-82
2024/01/24 10:10:19;;;;;;;0.30;0.30;;;;;;;;;;4999235;28;20408;-83
2024/01/24 10:12:45;;;;;;;0.20;0.10;;;;;;;;;;5024070;28;20509;-82
2024/01/24 10:15:12;;;;;;;0.20;0.10;;;;;;;;;;5004127;28;20037;-84
2024/01/24 10:17:42;;;;;;;0.47;0.32;;;;;;;;;;5024104;28;20045;-85
2024/01/24 10:20:14;;;;;;;0.20;0.10;;;;;;;;;;5013573;28;20445;-86
2024/01/24 10:22:42;;;;;;;0.20;0.00;;;;;;;;;;5022700;28;20146;-84
2024/01/24 10:25:11;;;;;;;0.20;0.10;;;;;;;;;;5012273;28;20044;-86
2024/01/24 10:27:44;;;;;;;2.10;1.70;;;;;;;;;;5012455;28;20044;-84
2024/01/24 10:30:22;;;;;;;0.20;0.10;;;;;;;;;;5023887;28;20025;-85
2024/01/24 10:32:48;;;;;;;0.20;0.10;;;;;;;;;;5009436;28;20043;-85
2024/01/24 10:35:15;;;;;;;0.20;0.00;;;;;;;;;;5035248;28;20421;-87
2024/01/24 10:37:42;;;;;;;0.38;0.35;;;;;;;;;;5014838;28;20040;-86
2024/01/24 10:40:13;;;;;;;0.20;0.10;;;;;;;;;;5019433;28;20082;-87
2024/01/24 10:42:40;;;;;;;0.50;0.50;;;;;;;;;;5028514;28;20047;-84
2024/01/24 10:45:09;;;;;;;0.20;0.10;;;;;;;;;;5017556;28;20033;-86
2024/01/24 10:47:36;;;;;;;0.20;0.10;;;;;;;;;;5010581;28;20033;-85
2024/01/24 10:50:07;;;;;;;0.55;0.55;;;;;;;;;;5010260;28;20536;-85
2024/01/24 10:52:42;;;;;;;0.20;0.10;;;;;;;;;;5014894;28;20052;-86
2024/01/24 10:55:13;;;;;;;0.20;0.00;;;;;;;;;;5018661;28;20048;-82
2024/01/24 10:57:42;;;;;;;0.28;0.28;;;;;;;;;;5025092;28;20051;-85
2024/01/24 11:00:11;;;;;;;0.20;0.15;;;;;;;;;;5024043;28;20053;-84
2024/01/24 11:02:43;;;;;;;0.43;0.43;;;;;;;;;;5010627;28;20178;-85
2024/01/24 11:05:13;;;;;;;0.20;0.05;;;;;;;;;;5023627;28;20187;-84
2024/01/24 11:07:51;;;;;;;0.20;0.10;;;;;;;;;;5017221;28;20095;-85
2024/01/24 11:10:21;;;;;;;0.20;0.03;;;;;;;;;;5011146;28;20028;-85
2024/01/24 11:12:47;;;;;;;0.20;0.10;;;;;;;;;;5023306;28;20194;-86
2024/01/24 11:15:13;;;;;;;0.20;0.00;;;;;;;;;;5018817;28;20132;-84
2024/01/24 11:17:46;;;;;;;0.20;0.00;;;;;;;;;;5013609;28;20096;-82
2024/01/24 11:20:18;;;;;;;;;;;;;;;;;;5019205;28;20041;-84
2024/01/24 11:22:44;;;;;;;0.20;0.10;;;;;;;;;;5022508;28;19921;-86
2024/01/24 11:25:13;;;;;;;0.80;0.80;;;;;;;;;;5008562;28;20041;-84
2024/01/24 11:27:44;;;;;;;0.20;0.10;;;;;;;;;;5033209;28;20041;-84
2024/01/24 11:30:42;;;;;;;0.20;0.10;;;;;;;;;;5023542;28;20105;-83
2024/01/24 11:33:14;;;;;;;0.30;0.30;;;;;;;;;;5029321;28;20425;-85
2024/01/24 11:35:45;;;;;;;0.20;0.20;;;;;;;;;;5007728;28;20044;-82
2024/01/24 11:38:20;;;;;;;0.65;0.65;;;;;;;;;;5011177;28;20486;-84
2024/01/24 11:40:47;;;;;;;0.20;0.10;;;;;;;;;;5009214;28;20072;-85
2024/01/24 11:43:30;;;;;;;0.20;0.10;;;;;;;;;;5022868;28;20103;-83
2024/01/24 11:45:57;;;;;;;0.20;0.00;;;;;;;;;;5025262;28;20065;-85
2024/01/24 11:48:29;;;;;;;0.20;0.10;;;;;;;;;;5015240;28;20082;-84
2024/01/24 11:50:55;;;;;;;;;;;;;;;;;;5002737;28;20276;-84
2024/01/24 11:53:21;;;;;;;0.20;0.10;;;;;;;;;;5007361;28;20467;-82
2024/01/24 11:55:58;;;;;;;0.20;0.10;;;;;;;;;;5004647;28;20045;-84
2024/01/24 11:58:28;;;;;;;0.20;0.10;;;;;;;;;;5022786;28;20041;-83
2024/01/24 12:01:00;;;;;;;0.20;0.10;;;;;;;;;;5007628;28;20079;-86
2024/01/24 12:03:29;;;;;;;0.20;0.10;;;;;;;;;;5010705;28;20066;-86
2024/01/24 12:05:56;;;;;;;0.45;0.45;;;;;;;;;;5022964;28;20049;-87
2024/01/24 12:08:22;;;;;;;0.73;0.73;;;;;;;;;;5004989;28;20050;-85
2024/01/24 12:11:00;;;;;;;0.20;0.10;;;;;;;;;;5014122;28;20034;-84
2024/01/24 12:13:29;;;;;;;0.20;0.00;;;;;;;;;;5011161;28;20050;-83
2024/01/24 12:15:56;;;;;;;0.20;0.00;;;;;;;;;;5024981;28;20493;-84
2024/01/24 12:18:27;;;;;;;0.20;0.10;;;;;;;;;;5013607;28;20064;-85
2024/01/24 12:21:08;;;;;;;0.68;0.55;;;;;;;;;;5025130;28;20152;-85
2024/01/24 12:23:37;;;;;;;0.20;0.00;;;;;;;;;;5011273;28;20539;-86
2024/01/24 12:26:03;;;;;;;0.20;0.10;;;;;;;;;;5027833;28;20466;-85
2024/01/24 12:28:33;;;;;;;0.30;0.30;;;;;;;;;;5021632;28;20057;-86
2024/01/24 12:31:01;;;;;;;0.30;0.30;;;;;;;;;;5017306;28;20040;-83
2024/01/24 12:33:34;;;;;;;0.20;0.10;;;;;;;;;;5014846;28;20041;-83
2024/01/24 12:36:30;;;;;;;0.20;0.10;;;;;;;;;;5020758;28;20049;-87
2024/01/24 12:39:02;;;;;;;0.20;0.10;;;;;;;;;;5031881;28;20053;-85
2024/01/24 12:41:29;;;;;;;0.20;0.10;;;;;;;;;;5011600;28;20040;-85
2024/01/24 12:43:58;;;;;;;4.90;1.27;;;;;;;;;;5013308;28;20083;-85
2024/01/24 12:46:24;;;;;;;0.20;0.10;;;;;;;;;;5020699;28;20060;-85
2024/01/24 12:48:56;;;;;;;0.20;0.10;;;;;;;;;;5009938;28;20105;-86
2024/01/24 12:51:23;;;;;;;0.20;0.00;;;;;;;;;;5038837;28;20036;-83
2024/01/24 12:53:49;;;;;;;0.20;0.20;;;;;;;;;;5008642;28;20209;-88
2024/01/24 12:56:15;;;;;;;0.20;0.10;;;;;;;;;;5013847;28;20581;-85
2024/01/24 12:58:45;;;;;;;0.20;0.10;;;;;;;;;;5013444;28;20089;-85
2024/01/24 13:01:11;;;;;;;0.20;0.08;;;;;;;;;;5026304;28;20157;-85
2024/01/24 13:03:37;;;;;;;0.52;0.52;;;;;;;;;;5027726;28;20044;-83
2024/01/24 13:06:17;;;;;;;0.20;0.10;;;;;;;;;;5041279;28;20055;-85
2024/01/24 13:08:43;;;;;;;0.20;0.00;;;;;;;;;;5033572;28;20140;-85
2024/01/24 13:11:18;;;;;;;0.20;0.03;;;;;;;;;;5046031;28;20071;-85
2024/01/24 13:13:52;;;;;;;0.32;0.32;;;;;;;;;;5007966;28;20045;-86
2024/01/24 13:16:27;;;;;;;0.20;0.20;;;;;;;;;;5026974;28;20079;-85
2024/01/24 13:18:59;;;;;;;0.20;0.00;;;;;;;;;;5011724;28;20037;-85
2024/01/24 13:21:25;;;;;;;0.20;0.10;;;;;;;;;;5014282;28;20049;-83
2024/01/24 13:23:51;;;;;;;0.20;0.00;;;;;;;;;;5006550;28;20049;-84
2024/01/24 13:26:17;;;;;;;0.20;0.10;;;;;;;;;;5023902;28;20045;-85
2024/01/24 13:28:43;;;;;;;0.20;0.20;;;;;;;;;;5008292;28;20080;-86
2024/01/24 13:31:09;;;;;;;0.20;0.10;;;;;;;;;;5012439;28;20143;-85
2024/01/24 13:33:37;;;;;;;0.40;0.35;;;;;;;;;;5026651;28;20044;-84
2024/01/24 13:36:06;;;;;;;0.20;0.17;;;;;;;;;;5007557;28;20513;-84
2024/01/24 13:38:38;;;;;;;0.52;0.52;;;;;;;;;;5008712;28;20049;-84
2024/01/24 13:41:04;;;;;;;0.20;0.10;;;;;;;;;;5012622;28;20052;-84
2024/01/24 13:43:30;;;;;;;0.20;0.10;;;;;;;;;;5024423;28;20048;-84
2024/01/24 13:45:59;;;;;;;4.47;0.20;;;;;;;;;;5010504;28;20524;-86
2024/01/24 13:48:25;;;;;;;0.20;0.10;;;;;;;;;;5024217;28;20037;-84
2024/01/24 13:50:51;;;;;;;0.20;0.10;;;;;;;;;;5012927;28;20071;-82
2024/01/24 13:53:23;;;;;;;0.20;0.03;;;;;;;;;;5006914;28;21880;-86
2024/01/24 13:55:50;;;;;;;2.05;1.15;;;;;;;;;;5010976;28;20041;-84
2024/01/24 13:58:20;;;;;;;1.63;0.85;;;;;;;;;;5014479;28;20055;-85
2024/01/24 14:00:46;;;;;;;0.30;0.30;;;;;;;;;;5015667;28;20037;-85
2024/01/24 14:03:14;;;;;;;0.30;0.30;;;;;;;;;;5015917;28;20041;-86
2024/01/24 14:05:40;;;;;;;0.20;0.10;;;;;;;;;;5013305;28;20049;-83
2024/01/24 14:08:07;;;;;;;2.50;1.95;;;;;;;;;;5017818;28;20040;-87
2024/01/24 14:10:33;;;;;;;0.30;0.10;;;;;;;;;;5043135;28;20757;-85
2024/01/24 14:13:08;;;;;;;0.30;0.30;;;;;;;;;;5024305;28;20096;-87
2024/01/24 14:15:34;;;;;;;0.20;0.10;;;;;;;;;;5016186;28;20378;-86
2024/01/24 14:18:03;;;;;;;0.20;0.10;;;;;;;;;;5021409;28;20471;-85
2024/01/24 14:20:29;;;;;;;0.20;0.10;;;;;;;;;;5024463;28;20381;-86
2024/01/24 14:22:55;;;;;;;0.40;0.40;;;;;;;;;;5010515;28;20072;-88
2024/01/24 14:25:22;;;;;;;0.20;0.10;;;;;;;;;;5015507;28;20045;-86
2024/01/24 14:27:48;;;;;;;0.20;0.10;;;;;;;;;;5026106;28;20034;-84
2024/01/24 14:30:14;;;;;;;0.20;0.00;;;;;;;;;;5025009;28;20120;-83
2024/01/24 14:32:40;;;;;;;1.10;1.10;;;;;;;;;;5018313;28;20124;-83
2024/01/24 14:35:07;;;;;;;0.20;0.10;;;;;;;;;;5014831;28;20569;-84
2024/01/24 14:37:33;;;;;;;0.20;0.10;;;;;;;;;;5012093;28;20095;-84
2024/01/24 14:39:59;;;;;;;0.20;0.10;;;;;;;;;;5013067;28;20456;-83
2024/01/24 14:42:25;;;;;;;0.20;0.10;;;;;;;;;;5025317;28;20059;-85
2024/01/24 14:44:51;;;;;;;0.20;0.10;;;;;;;;;;5015494;28;20049;-87
2024/01/24 14:47:20;;;;;;;0.30;0.13;;;;;;;;;;5017038;28;20580;-87
2024/01/24 14:49:46;;;;;;;0.20;0.10;;;;;;;;;;5006280;28;20043;-85
2024/01/24 14:52:13;;;;;;;0.20;0.10;;;;;;;;;;5041490;28;20034;-83
2024/01/24 14:54:42;;;;;;;0.20;0.10;;;;;;;;;;5029741;28;20422;-83